sensor_id;sensor_type;location;lat;lon;timestamp;pressure;altitude;pressure_sealevel;temperature;humidity
75745;BME280;74462;51.366;-0.222;2024-03-02T00:00:03;98885.55;;;5.43;78.36
75745;BME280;74462;51.366;-0.222;2024-03-02T00:01:12;98881.88;;;5.45;78.44
75745;BME280;74462;51.366;-0.222;2024-03-02T00:02:18;98880.92;;;5.48;78.43
75745;BME280;74462;51.366;-0.222;2024-03-02T00:03:22;98879.98;;;5.50;78.53
75745;BME280;74462;51.366;-0.222;2024-03-02T00:04:27;98879.77;;;5.53;78.49
75745;BME280;74462;51.366;-0.222;2024-03-02T00:05:32;98880.73;;;5.56;78.44
75745;BME280;74462;51.366;-0.222;2024-03-02T00:06:37;98886.60;;;5.59;78.64
75745;BME280;74462;51.366;-0.222;2024-03-02T00:07:43;98886.86;;;5.62;78.54
75745;BME280;74462;51.366;-0.222;2024-03-02T00:08:48;98887.11;;;5.65;78.42
75745;BME280;74462;51.366;-0.222;2024-03-02T00:09:55;98886.99;;;5.67;78.26
75745;BME280;74462;51.366;-0.222;2024-03-02T00:11:00;98887.59;;;5.68;78.04
75745;BME280;74462;51.366;-0.222;2024-03-02T00:12:06;98890.79;;;5.70;78.35
75745;BME280;74462;51.366;-0.222;2024-03-02T00:13:11;98891.33;;;5.68;78.34
75745;BME280;74462;51.366;-0.222;2024-03-02T00:14:17;98887.52;;;5.69;78.35
75745;BME280;74462;51.366;-0.222;2024-03-02T00:15:37;98881.41;;;5.70;78.11
75745;BME280;74462;51.366;-0.222;2024-03-02T00:16:44;98882.66;;;5.70;78.24
75745;BME280;74462;51.366;-0.222;2024-03-02T00:17:53;98880.69;;;5.70;78.22
75745;BME280;74462;51.366;-0.222;2024-03-02T00:19:02;98874.73;;;5.72;78.29
75745;BME280;74462;51.366;-0.222;2024-03-02T00:20:07;98877.90;;;5.72;77.92
75745;BME280;74462;51.366;-0.222;2024-03-02T00:21:13;98873.88;;;5.72;77.99
75745;BME280;74462;51.366;-0.222;2024-03-02T00:22:19;98875.63;;;5.70;78.03
75745;BME280;74462;51.366;-0.222;2024-03-02T00:23:26;98873.85;;;5.72;78.06
75745;BME280;74462;51.366;-0.222;2024-03-02T00:24:34;98875.96;;;5.74;78.03
75745;BME280;74462;51.366;-0.222;2024-03-02T00:25:43;98876.30;;;5.74;77.85
75745;BME280;74462;51.366;-0.222;2024-03-02T00:26:48;98874.73;;;5.76;77.87
75745;BME280;74462;51.366;-0.222;2024-03-02T00:27:52;98876.49;;;5.76;77.75
75745;BME280;74462;51.366;-0.222;2024-03-02T00:28:57;98875.66;;;5.77;77.62
75745;BME280;74462;51.366;-0.222;2024-03-02T00:30:03;98874.71;;;5.78;77.54
75745;BME280;74462;51.366;-0.222;2024-03-02T00:31:11;98878.66;;;5.79;77.85
75745;BME280;74462;51.366;-0.222;2024-03-02T00:32:17;98875.38;;;5.80;77.98
75745;BME280;74462;51.366;-0.222;2024-03-02T00:33:22;98873.66;;;5.80;77.73
75745;BME280;74462;51.366;-0.222;2024-03-02T00:34:28;98878.08;;;5.81;77.47
75745;BME280;74462;51.366;-0.222;2024-03-02T00:35:33;98877.16;;;5.80;77.29
75745;BME280;74462;51.366;-0.222;2024-03-02T00:36:37;98877.14;;;5.82;77.47
75745;BME280;74462;51.366;-0.222;2024-03-02T00:37:42;98878.44;;;5.83;77.33
75745;BME280;74462;51.366;-0.222;2024-03-02T00:38:48;98879.39;;;5.85;77.43
75745;BME280;74462;51.366;-0.222;2024-03-02T00:39:53;98879.21;;;5.82;77.37
75745;BME280;74462;51.366;-0.222;2024-03-02T00:40:58;98880.77;;;5.81;77.56
75745;BME280;74462;51.366;-0.222;2024-03-02T00:42:03;98882.08;;;5.84;77.62
75745;BME280;74462;51.366;-0.222;2024-03-02T00:44:35;98866.31;;;5.85;77.60
75745;BME280;74462;51.366;-0.222;2024-03-02T00:45:42;98867.93;;;5.83;77.62
75745;BME280;74462;51.366;-0.222;2024-03-02T00:46:46;98862.98;;;5.85;77.82
75745;BME280;74462;51.366;-0.222;2024-03-02T00:47:51;98862.12;;;5.85;77.94
75745;BME280;74462;51.366;-0.222;2024-03-02T00:48:57;98858.61;;;5.86;77.89
75745;BME280;74462;51.366;-0.222;2024-03-02T00:50:02;98859.41;;;5.87;77.86
75745;BME280;74462;51.366;-0.222;2024-03-02T00:51:06;98863.52;;;5.83;77.78
75745;BME280;74462;51.366;-0.222;2024-03-02T00:52:13;98864.98;;;5.75;77.62
75745;BME280;74462;51.366;-0.222;2024-03-02T00:53:18;98859.20;;;5.74;77.21
75745;BME280;74462;51.366;-0.222;2024-03-02T00:54:27;98851.32;;;5.78;77.60
75745;BME280;74462;51.366;-0.222;2024-03-02T00:55:37;98850.39;;;5.74;77.26
75745;BME280;74462;51.366;-0.222;2024-03-02T00:56:42;98846.42;;;5.71;77.68
75745;BME280;74462;51.366;-0.222;2024-03-02T00:57:47;98846.19;;;5.72;77.83
75745;BME280;74462;51.366;-0.222;2024-03-02T00:58:51;98840.15;;;5.75;77.75
75745;BME280;74462;51.366;-0.222;2024-03-02T00:59:56;98840.73;;;5.76;77.89
75745;BME280;74462;51.366;-0.222;2024-03-02T01:01:01;98840.52;;;5.76;77.69
75745;BME280;74462;51.366;-0.222;2024-03-02T01:02:05;98843.98;;;5.77;77.81
75745;BME280;74462;51.366;-0.222;2024-03-02T01:03:10;98846.23;;;5.72;77.93
75745;BME280;74462;51.366;-0.222;2024-03-02T01:04:14;98846.88;;;5.57;77.96
75745;BME280;74462;51.366;-0.222;2024-03-02T01:05:19;98848.30;;;5.64;78.11
75745;BME280;74462;51.366;-0.222;2024-03-02T01:06:23;98848.10;;;5.59;78.34
75745;BME280;74462;51.366;-0.222;2024-03-02T01:07:28;98842.92;;;5.55;78.11
75745;BME280;74462;51.366;-0.222;2024-03-02T01:08:32;98839.44;;;5.63;78.22
75745;BME280;74462;51.366;-0.222;2024-03-02T01:09:37;98835.63;;;5.64;78.39
75745;BME280;74462;51.366;-0.222;2024-03-02T01:10:41;98839.00;;;5.68;78.50
75745;BME280;74462;51.366;-0.222;2024-03-02T01:11:46;98831.48;;;5.69;78.25
75745;BME280;74462;51.366;-0.222;2024-03-02T01:12:50;98836.84;;;5.70;78.32
75745;BME280;74462;51.366;-0.222;2024-03-02T01:13:55;98836.42;;;5.71;78.21
75745;BME280;74462;51.366;-0.222;2024-03-02T01:15:00;98840.13;;;5.69;78.35
75745;BME280;74462;51.366;-0.222;2024-03-02T01:16:05;98836.46;;;5.73;78.36
75745;BME280;74462;51.366;-0.222;2024-03-02T01:17:09;98840.95;;;5.73;78.50
75745;BME280;74462;51.366;-0.222;2024-03-02T01:18:14;98840.92;;;5.74;78.40
75745;BME280;74462;51.366;-0.222;2024-03-02T01:19:19;98847.77;;;5.72;78.38
75745;BME280;74462;51.366;-0.222;2024-03-02T01:20:24;98850.14;;;5.69;78.33
75745;BME280;74462;51.366;-0.222;2024-03-02T01:21:29;98856.36;;;5.69;78.48
75745;BME280;74462;51.366;-0.222;2024-03-02T01:22:33;98849.77;;;5.73;78.50
75745;BME280;74462;51.366;-0.222;2024-03-02T01:23:38;98852.39;;;5.76;78.68
75745;BME280;74462;51.366;-0.222;2024-03-02T01:24:43;98849.10;;;5.79;78.84
75745;BME280;74462;51.366;-0.222;2024-03-02T01:25:48;98849.44;;;5.79;78.44
75745;BME280;74462;51.366;-0.222;2024-03-02T01:26:52;98852.63;;;5.77;78.21
75745;BME280;74462;51.366;-0.222;2024-03-02T01:27:57;98849.63;;;5.77;78.38
75745;BME280;74462;51.366;-0.222;2024-03-02T01:29:01;98854.58;;;5.77;78.29
75745;BME280;74462;51.366;-0.222;2024-03-02T01:30:09;98856.89;;;5.75;78.22
75745;BME280;74462;51.366;-0.222;2024-03-02T01:31:14;98852.77;;;5.77;78.21
75745;BME280;74462;51.366;-0.222;2024-03-02T01:32:18;98848.91;;;5.81;78.38
75745;BME280;74462;51.366;-0.222;2024-03-02T01:33:23;98848.69;;;5.81;78.48
75745;BME280;74462;51.366;-0.222;2024-03-02T01:34:27;98852.38;;;5.79;78.11
75745;BME280;74462;51.366;-0.222;2024-03-02T01:35:32;98853.17;;;5.75;78.79
75745;BME280;74462;51.366;-0.222;2024-03-02T01:36:37;98848.16;;;5.76;79.05
75745;BME280;74462;51.366;-0.222;2024-03-02T01:37:42;98848.58;;;5.77;79.11
75745;BME280;74462;51.366;-0.222;2024-03-02T01:38:46;98846.71;;;5.72;78.88
75745;BME280;74462;51.366;-0.222;2024-03-02T01:39:51;98843.16;;;5.74;79.09
75745;BME280;74462;51.366;-0.222;2024-03-02T01:40:56;98843.09;;;5.77;78.80
75745;BME280;74462;51.366;-0.222;2024-03-02T01:42:01;98840.79;;;5.81;78.84
75745;BME280;74462;51.366;-0.222;2024-03-02T01:43:06;98839.42;;;5.83;78.70
75745;BME280;74462;51.366;-0.222;2024-03-02T01:44:11;98837.42;;;5.83;78.82
75745;BME280;74462;51.366;-0.222;2024-03-02T01:45:16;98837.53;;;5.82;79.07
75745;BME280;74462;51.366;-0.222;2024-03-02T01:46:20;98840.34;;;5.88;78.86
75745;BME280;74462;51.366;-0.222;2024-03-02T01:47:25;98842.06;;;5.91;79.10
75745;BME280;74462;51.366;-0.222;2024-03-02T01:48:29;98837.61;;;5.91;79.40
75745;BME280;74462;51.366;-0.222;2024-03-02T01:49:34;98832.13;;;5.92;79.26
75745;BME280;74462;51.366;-0.222;2024-03-02T01:50:39;98832.83;;;5.96;78.89
75745;BME280;74462;51.366;-0.222;2024-03-02T01:51:43;98832.94;;;5.96;79.57
75745;BME280;74462;51.366;-0.222;2024-03-02T01:52:48;98832.63;;;5.94;79.63
75745;BME280;74462;51.366;-0.222;2024-03-02T01:53:52;98834.20;;;5.90;79.42
75745;BME280;74462;51.366;-0.222;2024-03-02T01:54:57;98829.60;;;5.88;79.31
75745;BME280;74462;51.366;-0.222;2024-03-02T01:56:01;98833.40;;;5.91;79.14
75745;BME280;74462;51.366;-0.222;2024-03-02T01:57:06;98843.73;;;5.90;79.33
75745;BME280;74462;51.366;-0.222;2024-03-02T01:58:11;98848.40;;;5.82;79.64
75745;BME280;74462;51.366;-0.222;2024-03-02T01:59:16;98854.30;;;5.66;80.19
75745;BME280;74462;51.366;-0.222;2024-03-02T02:00:21;98849.36;;;5.72;80.37
75745;BME280;74462;51.366;-0.222;2024-03-02T02:01:27;98836.37;;;5.79;80.16
75745;BME280;74462;51.366;-0.222;2024-03-02T02:02:32;98829.99;;;5.83;80.01
75745;BME280;74462;51.366;-0.222;2024-03-02T02:03:36;98832.64;;;5.80;80.49
75745;BME280;74462;51.366;-0.222;2024-03-02T02:04:41;98833.13;;;5.84;80.06
75745;BME280;74462;51.366;-0.222;2024-03-02T02:05:46;98827.27;;;5.86;80.54
75745;BME280;74462;51.366;-0.222;2024-03-02T02:06:51;98825.95;;;5.89;80.17
75745;BME280;74462;51.366;-0.222;2024-03-02T02:07:55;98826.68;;;5.94;80.16
75745;BME280;74462;51.366;-0.222;2024-03-02T02:09:01;98825.53;;;5.96;80.16
75745;BME280;74462;51.366;-0.222;2024-03-02T02:10:07;98831.43;;;5.95;80.60
75745;BME280;74462;51.366;-0.222;2024-03-02T02:11:12;98832.83;;;5.96;80.54
75745;BME280;74462;51.366;-0.222;2024-03-02T02:12:18;98834.67;;;6.00;80.16
75745;BME280;74462;51.366;-0.222;2024-03-02T02:13:23;98828.00;;;6.02;79.91
75745;BME280;74462;51.366;-0.222;2024-03-02T02:14:27;98824.88;;;6.05;79.97
75745;BME280;74462;51.366;-0.222;2024-03-02T02:15:32;98822.40;;;6.07;79.84
75745;BME280;74462;51.366;-0.222;2024-03-02T02:16:39;98824.33;;;6.07;80.26
75745;BME280;74462;51.366;-0.222;2024-03-02T02:17:43;98826.59;;;6.09;80.03
75745;BME280;74462;51.366;-0.222;2024-03-02T02:18:48;98818.44;;;6.12;80.00
75745;BME280;74462;51.366;-0.222;2024-03-02T02:19:52;98824.92;;;6.14;79.86
75745;BME280;74462;51.366;-0.222;2024-03-02T02:20:57;98821.77;;;6.16;80.02
75745;BME280;74462;51.366;-0.222;2024-03-02T02:22:01;98821.27;;;6.18;80.01
75745;BME280;74462;51.366;-0.222;2024-03-02T02:23:06;98818.09;;;6.20;80.01
75745;BME280;74462;51.366;-0.222;2024-03-02T02:24:12;98813.95;;;6.21;80.06
75745;BME280;74462;51.366;-0.222;2024-03-02T02:25:17;98811.96;;;6.23;79.80
75745;BME280;74462;51.366;-0.222;2024-03-02T02:26:21;98809.54;;;6.23;79.88
75745;BME280;74462;51.366;-0.222;2024-03-02T02:27:26;98813.98;;;6.22;79.91
75745;BME280;74462;51.366;-0.222;2024-03-02T02:28:30;98809.30;;;6.25;80.11
75745;BME280;74462;51.366;-0.222;2024-03-02T02:29:35;98805.91;;;6.26;79.69
75745;BME280;74462;51.366;-0.222;2024-03-02T02:30:39;98806.80;;;6.28;79.72
75745;BME280;74462;51.366;-0.222;2024-03-02T02:31:44;98802.64;;;6.28;79.84
75745;BME280;74462;51.366;-0.222;2024-03-02T02:32:48;98800.48;;;6.29;79.56
75745;BME280;74462;51.366;-0.222;2024-03-02T02:33:53;98800.41;;;6.30;79.38
75745;BME280;74462;51.366;-0.222;2024-03-02T02:34:58;98803.59;;;6.20;79.42
75745;BME280;74462;51.366;-0.222;2024-03-02T02:36:03;98801.66;;;6.12;79.34
75745;BME280;74462;51.366;-0.222;2024-03-02T02:37:07;98799.43;;;6.18;79.27
75745;BME280;74462;51.366;-0.222;2024-03-02T02:38:12;98800.39;;;6.11;79.29
75745;BME280;74462;51.366;-0.222;2024-03-02T02:39:19;98802.65;;;6.05;79.38
75745;BME280;74462;51.366;-0.222;2024-03-02T02:40:25;98795.83;;;6.11;79.64
75745;BME280;74462;51.366;-0.222;2024-03-02T02:41:30;98797.30;;;6.12;79.81
75745;BME280;74462;51.366;-0.222;2024-03-02T02:42:35;98796.66;;;6.09;79.75
75745;BME280;74462;51.366;-0.222;2024-03-02T02:43:39;98788.39;;;6.11;79.47
75745;BME280;74462;51.366;-0.222;2024-03-02T02:44:43;98787.27;;;6.11;79.60
75745;BME280;74462;51.366;-0.222;2024-03-02T02:45:48;98793.93;;;6.12;79.63
75745;BME280;74462;51.366;-0.222;2024-03-02T02:46:52;98792.77;;;6.09;79.50
75745;BME280;74462;51.366;-0.222;2024-03-02T02:47:57;98795.13;;;6.10;79.57
75745;BME280;74462;51.366;-0.222;2024-03-02T02:49:02;98796.11;;;6.09;79.57
75745;BME280;74462;51.366;-0.222;2024-03-02T02:50:08;98792.27;;;6.12;79.46
75745;BME280;74462;51.366;-0.222;2024-03-02T02:51:13;98793.39;;;6.16;79.86
75745;BME280;74462;51.366;-0.222;2024-03-02T02:52:17;98795.07;;;6.15;80.03
75745;BME280;74462;51.366;-0.222;2024-03-02T02:53:23;98782.59;;;6.17;79.79
75745;BME280;74462;51.366;-0.222;2024-03-02T02:54:27;98786.62;;;6.17;79.69
75745;BME280;74462;51.366;-0.222;2024-03-02T02:55:32;98785.03;;;6.19;80.05
75745;BME280;74462;51.366;-0.222;2024-03-02T02:56:36;98782.86;;;6.16;79.69
75745;BME280;74462;51.366;-0.222;2024-03-02T02:57:41;98786.14;;;6.14;79.84
75745;BME280;74462;51.366;-0.222;2024-03-02T02:58:47;98785.89;;;6.13;79.56
75745;BME280;74462;51.366;-0.222;2024-03-02T02:59:51;98781.86;;;6.19;79.56
75745;BME280;74462;51.366;-0.222;2024-03-02T03:00:55;98784.59;;;6.16;79.78
75745;BME280;74462;51.366;-0.222;2024-03-02T03:02:00;98782.89;;;6.13;79.19
75745;BME280;74462;51.366;-0.222;2024-03-02T03:03:05;98783.98;;;6.17;79.89
75745;BME280;74462;51.366;-0.222;2024-03-02T03:04:09;98783.87;;;6.19;79.61
75745;BME280;74462;51.366;-0.222;2024-03-02T03:05:14;98777.80;;;6.19;79.58
75745;BME280;74462;51.366;-0.222;2024-03-02T03:06:19;98776.54;;;6.21;79.28
75745;BME280;74462;51.366;-0.222;2024-03-02T03:07:23;98776.06;;;6.23;79.41
75745;BME280;74462;51.366;-0.222;2024-03-02T03:08:28;98778.37;;;6.22;79.56
75745;BME280;74462;51.366;-0.222;2024-03-02T03:09:32;98774.13;;;6.21;79.18
75745;BME280;74462;51.366;-0.222;2024-03-02T03:10:37;98779.01;;;6.23;79.11
75745;BME280;74462;51.366;-0.222;2024-03-02T03:11:42;98774.89;;;6.24;79.36
75745;BME280;74462;51.366;-0.222;2024-03-02T03:12:46;98771.60;;;6.25;79.24
75745;BME280;74462;51.366;-0.222;2024-03-02T03:13:51;98771.59;;;6.18;79.02
75745;BME280;74462;51.366;-0.222;2024-03-02T03:14:57;98775.54;;;6.23;79.32
75745;BME280;74462;51.366;-0.222;2024-03-02T03:16:01;98770.92;;;6.19;79.10
75745;BME280;74462;51.366;-0.222;2024-03-02T03:17:06;98772.25;;;6.22;79.03
75745;BME280;74462;51.366;-0.222;2024-03-02T03:18:11;98772.88;;;6.25;79.23
75745;BME280;74462;51.366;-0.222;2024-03-02T03:19:15;98766.31;;;6.25;78.99
75745;BME280;74462;51.366;-0.222;2024-03-02T03:20:20;98763.03;;;6.26;79.41
75745;BME280;74462;51.366;-0.222;2024-03-02T03:21:25;98761.83;;;6.26;79.57
75745;BME280;74462;51.366;-0.222;2024-03-02T03:22:30;98760.81;;;6.29;79.53
75745;BME280;74462;51.366;-0.222;2024-03-02T03:23:34;98753.86;;;6.28;79.23
75745;BME280;74462;51.366;-0.222;2024-03-02T03:24:39;98759.16;;;6.26;79.44
75745;BME280;74462;51.366;-0.222;2024-03-02T03:25:43;98754.52;;;6.25;79.11
75745;BME280;74462;51.366;-0.222;2024-03-02T03:26:48;98755.86;;;6.29;79.81
75745;BME280;74462;51.366;-0.222;2024-03-02T03:27:52;98753.31;;;6.28;79.85
75745;BME280;74462;51.366;-0.222;2024-03-02T03:28:57;98753.67;;;6.28;79.63
75745;BME280;74462;51.366;-0.222;2024-03-02T03:30:01;98750.70;;;6.19;79.55
75745;BME280;74462;51.366;-0.222;2024-03-02T03:31:06;98751.33;;;6.22;79.35
75745;BME280;74462;51.366;-0.222;2024-03-02T03:32:11;98750.05;;;6.27;79.65
75745;BME280;74462;51.366;-0.222;2024-03-02T03:33:15;98747.91;;;6.31;79.80
75745;BME280;74462;51.366;-0.222;2024-03-02T03:34:20;98743.50;;;6.27;79.38
75745;BME280;74462;51.366;-0.222;2024-03-02T03:35:24;98738.19;;;6.30;79.64
75745;BME280;74462;51.366;-0.222;2024-03-02T03:36:29;98736.64;;;6.33;79.73
75745;BME280;74462;51.366;-0.222;2024-03-02T03:37:33;98732.35;;;6.35;79.68
75745;BME280;74462;51.366;-0.222;2024-03-02T03:38:37;98735.35;;;6.35;79.69
75745;BME280;74462;51.366;-0.222;2024-03-02T03:39:42;98734.52;;;6.29;79.04
75745;BME280;74462;51.366;-0.222;2024-03-02T03:40:46;98737.66;;;6.33;79.19
75745;BME280;74462;51.366;-0.222;2024-03-02T03:41:51;98733.77;;;6.34;79.24
75745;BME280;74462;51.366;-0.222;2024-03-02T03:42:56;98739.67;;;6.33;79.07
75745;BME280;74462;51.366;-0.222;2024-03-02T03:44:00;98740.16;;;6.35;79.35
75745;BME280;74462;51.366;-0.222;2024-03-02T03:45:06;98735.02;;;6.30;79.26
75745;BME280;74462;51.366;-0.222;2024-03-02T03:46:10;98737.77;;;6.31;79.25
75745;BME280;74462;51.366;-0.222;2024-03-02T03:47:15;98733.53;;;6.32;78.84
75745;BME280;74462;51.366;-0.222;2024-03-02T03:48:19;98737.30;;;6.32;79.03
75745;BME280;74462;51.366;-0.222;2024-03-02T03:49:24;98732.48;;;6.36;79.02
75745;BME280;74462;51.366;-0.222;2024-03-02T03:50:28;98730.84;;;6.35;78.72
75745;BME280;74462;51.366;-0.222;2024-03-02T03:51:33;98734.01;;;6.31;78.98
75745;BME280;74462;51.366;-0.222;2024-03-02T03:52:38;98724.02;;;6.32;78.76
75745;BME280;74462;51.366;-0.222;2024-03-02T03:53:42;98725.02;;;6.33;79.03
75745;BME280;74462;51.366;-0.222;2024-03-02T03:54:47;98716.66;;;6.32;78.48
75745;BME280;74462;51.366;-0.222;2024-03-02T03:55:51;98715.48;;;6.35;78.74
75745;BME280;74462;51.366;-0.222;2024-03-02T03:56:56;98719.62;;;6.32;78.78
75745;BME280;74462;51.366;-0.222;2024-03-02T03:58:00;98716.13;;;6.34;78.30
75745;BME280;74462;51.366;-0.222;2024-03-02T03:59:05;98720.05;;;6.33;78.53
75745;BME280;74462;51.366;-0.222;2024-03-02T04:00:11;98715.50;;;6.26;78.25
75745;BME280;74462;51.366;-0.222;2024-03-02T04:01:15;98720.34;;;6.27;78.08
75745;BME280;74462;51.366;-0.222;2024-03-02T04:02:20;98719.35;;;6.29;77.93
75745;BME280;74462;51.366;-0.222;2024-03-02T04:03:24;98718.98;;;6.30;77.95
75745;BME280;74462;51.366;-0.222;2024-03-02T04:04:29;98716.95;;;6.31;78.27
75745;BME280;74462;51.366;-0.222;2024-03-02T04:05:34;98717.29;;;6.29;78.01
75745;BME280;74462;51.366;-0.222;2024-03-02T04:06:38;98712.15;;;6.33;78.02
75745;BME280;74462;51.366;-0.222;2024-03-02T04:07:43;98715.41;;;6.32;78.17
75745;BME280;74462;51.366;-0.222;2024-03-02T04:08:47;98711.88;;;6.27;77.75
75745;BME280;74462;51.366;-0.222;2024-03-02T04:09:52;98711.45;;;6.29;77.72
75745;BME280;74462;51.366;-0.222;2024-03-02T04:10:56;98713.83;;;6.30;78.08
75745;BME280;74462;51.366;-0.222;2024-03-02T04:12:01;98717.73;;;6.26;77.70
75745;BME280;74462;51.366;-0.222;2024-03-02T04:13:06;98718.33;;;6.27;77.81
75745;BME280;74462;51.366;-0.222;2024-03-02T04:14:10;98717.18;;;6.28;77.55
75745;BME280;74462;51.366;-0.222;2024-03-02T04:15:15;98714.39;;;6.32;77.99
75745;BME280;74462;51.366;-0.222;2024-03-02T04:16:21;98714.98;;;6.24;77.47
75745;BME280;74462;51.366;-0.222;2024-03-02T04:17:26;98716.99;;;6.27;77.54
75745;BME280;74462;51.366;-0.222;2024-03-02T04:18:30;98711.83;;;6.25;77.39
75745;BME280;74462;51.366;-0.222;2024-03-02T04:19:35;98714.70;;;6.30;77.62
75745;BME280;74462;51.366;-0.222;2024-03-02T04:20:39;98710.31;;;6.34;77.73
75745;BME280;74462;51.366;-0.222;2024-03-02T04:21:44;98713.34;;;6.33;77.80
75745;BME280;74462;51.366;-0.222;2024-03-02T04:22:48;98707.19;;;6.35;78.02
75745;BME280;74462;51.366;-0.222;2024-03-02T04:23:53;98703.39;;;6.38;78.25
75745;BME280;74462;51.366;-0.222;2024-03-02T04:25:00;98700.63;;;6.39;77.60
75745;BME280;74462;51.366;-0.222;2024-03-02T04:26:05;98701.95;;;6.38;77.82
75745;BME280;74462;51.366;-0.222;2024-03-02T04:27:10;98698.34;;;6.41;77.73
75745;BME280;74462;51.366;-0.222;2024-03-02T04:28:14;98698.33;;;6.39;77.41
75745;BME280;74462;51.366;-0.222;2024-03-02T04:29:18;98704.65;;;6.39;77.79
75745;BME280;74462;51.366;-0.222;2024-03-02T04:30:23;98701.82;;;6.38;77.30
75745;BME280;74462;51.366;-0.222;2024-03-02T04:31:28;98703.56;;;6.38;77.93
75745;BME280;74462;51.366;-0.222;2024-03-02T04:32:32;98699.20;;;6.41;78.02
75745;BME280;74462;51.366;-0.222;2024-03-02T04:33:39;98702.64;;;6.44;78.41
75745;BME280;74462;51.366;-0.222;2024-03-02T04:34:43;98704.99;;;6.45;78.44
75745;BME280;74462;51.366;-0.222;2024-03-02T04:35:48;98702.48;;;6.46;78.67
75745;BME280;74462;51.366;-0.222;2024-03-02T04:36:52;98702.16;;;6.49;78.64
75745;BME280;74462;51.366;-0.222;2024-03-02T04:37:57;98701.17;;;6.52;78.88
75745;BME280;74462;51.366;-0.222;2024-03-02T04:39:01;98705.67;;;6.53;78.63
75745;BME280;74462;51.366;-0.222;2024-03-02T04:40:08;98701.20;;;6.55;78.89
75745;BME280;74462;51.366;-0.222;2024-03-02T04:41:12;98703.80;;;6.54;79.09
75745;BME280;74462;51.366;-0.222;2024-03-02T04:42:17;98705.95;;;6.52;79.17
75745;BME280;74462;51.366;-0.222;2024-03-02T04:43:21;98705.41;;;6.46;78.58
75745;BME280;74462;51.366;-0.222;2024-03-02T04:44:26;98704.70;;;6.52;78.65
75745;BME280;74462;51.366;-0.222;2024-03-02T04:45:30;98705.79;;;6.54;78.46
75745;BME280;74462;51.366;-0.222;2024-03-02T04:46:35;98705.77;;;6.52;78.95
75745;BME280;74462;51.366;-0.222;2024-03-02T04:47:39;98712.23;;;6.49;78.81
75745;BME280;74462;51.366;-0.222;2024-03-02T04:48:43;98704.81;;;6.49;78.26
75745;BME280;74462;51.366;-0.222;2024-03-02T04:49:48;98698.96;;;6.49;78.70
75745;BME280;74462;51.366;-0.222;2024-03-02T04:50:52;98698.34;;;6.54;78.70
75745;BME280;74462;51.366;-0.222;2024-03-02T04:51:57;98699.64;;;6.55;78.74
75745;BME280;74462;51.366;-0.222;2024-03-02T04:53:01;98704.35;;;6.56;78.65
75745;BME280;74462;51.366;-0.222;2024-03-02T04:54:06;98699.85;;;6.49;78.41
75745;BME280;74462;51.366;-0.222;2024-03-02T04:55:10;98703.96;;;6.45;78.20
75745;BME280;74462;51.366;-0.222;2024-03-02T04:56:32;98703.56;;;6.47;78.58
75745;BME280;74462;51.366;-0.222;2024-03-02T04:57:52;98702.13;;;6.50;78.82
75745;BME280;74462;51.366;-0.222;2024-03-02T04:58:58;98703.88;;;6.48;78.86
75745;BME280;74462;51.366;-0.222;2024-03-02T05:00:02;98703.42;;;6.49;78.75
75745;BME280;74462;51.366;-0.222;2024-03-02T05:01:10;98708.36;;;6.47;78.63
75745;BME280;74462;51.366;-0.222;2024-03-02T05:02:14;98706.26;;;6.49;79.17
75745;BME280;74462;51.366;-0.222;2024-03-02T05:03:19;98704.22;;;6.50;79.27
75745;BME280;74462;51.366;-0.222;2024-03-02T05:04:23;98702.13;;;6.51;78.96
75745;BME280;74462;51.366;-0.222;2024-03-02T05:05:28;98697.73;;;6.51;78.73
75745;BME280;74462;51.366;-0.222;2024-03-02T05:06:32;98698.97;;;6.53;78.94
75745;BME280;74462;51.366;-0.222;2024-03-02T05:07:37;98700.95;;;6.53;79.22
75745;BME280;74462;51.366;-0.222;2024-03-02T05:08:41;98693.13;;;6.57;78.91
75745;BME280;74462;51.366;-0.222;2024-03-02T05:09:47;98693.09;;;6.54;78.71
75745;BME280;74462;51.366;-0.222;2024-03-02T05:10:52;98694.34;;;6.53;78.69
75745;BME280;74462;51.366;-0.222;2024-03-02T05:11:56;98693.81;;;6.53;78.87
75745;BME280;74462;51.366;-0.222;2024-03-02T05:13:18;98692.60;;;6.46;78.65
75745;BME280;74462;51.366;-0.222;2024-03-02T05:14:24;98689.51;;;6.41;78.39
75745;BME280;74462;51.366;-0.222;2024-03-02T05:15:28;98686.32;;;6.45;78.64
75745;BME280;74462;51.366;-0.222;2024-03-02T05:16:35;98689.28;;;6.44;78.72
75745;BME280;74462;51.366;-0.222;2024-03-02T05:17:42;98685.74;;;6.43;78.87
75745;BME280;74462;51.366;-0.222;2024-03-02T05:18:46;98688.64;;;6.37;78.22
75745;BME280;74462;51.366;-0.222;2024-03-02T05:19:51;98689.89;;;6.39;78.55
75745;BME280;74462;51.366;-0.222;2024-03-02T05:20:55;98683.29;;;6.43;78.37
75745;BME280;74462;51.366;-0.222;2024-03-02T05:22:00;98684.92;;;6.45;78.70
75745;BME280;74462;51.366;-0.222;2024-03-02T05:23:05;98686.52;;;6.39;78.85
75745;BME280;74462;51.366;-0.222;2024-03-02T05:24:09;98687.73;;;6.42;79.00
75745;BME280;74462;51.366;-0.222;2024-03-02T05:25:14;98686.77;;;6.42;78.93
75745;BME280;74462;51.366;-0.222;2024-03-02T05:26:18;98681.98;;;6.41;79.18
75745;BME280;74462;51.366;-0.222;2024-03-02T05:27:22;98680.85;;;6.41;78.73
75745;BME280;74462;51.366;-0.222;2024-03-02T05:28:27;98676.71;;;6.41;78.69
75745;BME280;74462;51.366;-0.222;2024-03-02T05:29:31;98674.67;;;6.41;78.79
75745;BME280;74462;51.366;-0.222;2024-03-02T05:30:36;98673.16;;;6.44;78.83
75745;BME280;74462;51.366;-0.222;2024-03-02T05:31:40;98678.90;;;6.42;78.74
75745;BME280;74462;51.366;-0.222;2024-03-02T05:32:45;98678.38;;;6.36;78.48
75745;BME280;74462;51.366;-0.222;2024-03-02T05:33:50;98679.39;;;6.38;78.42
75745;BME280;74462;51.366;-0.222;2024-03-02T05:34:55;98676.70;;;6.38;78.65
75745;BME280;74462;51.366;-0.222;2024-03-02T05:36:00;98670.64;;;6.36;78.27
75745;BME280;74462;51.366;-0.222;2024-03-02T05:37:05;98673.79;;;6.38;78.13
75745;BME280;74462;51.366;-0.222;2024-03-02T05:38:09;98668.00;;;6.41;78.34
75745;BME280;74462;51.366;-0.222;2024-03-02T05:39:14;98666.88;;;6.38;78.27
75745;BME280;74462;51.366;-0.222;2024-03-02T05:40:18;98662.67;;;6.42;78.30
75745;BME280;74462;51.366;-0.222;2024-03-02T05:41:23;98668.20;;;6.45;78.46
75745;BME280;74462;51.366;-0.222;2024-03-02T05:42:27;98662.73;;;6.46;78.44
75745;BME280;74462;51.366;-0.222;2024-03-02T05:43:32;98663.36;;;6.50;78.55
75745;BME280;74462;51.366;-0.222;2024-03-02T05:44:36;98664.30;;;6.49;78.47
75745;BME280;74462;51.366;-0.222;2024-03-02T05:45:41;98664.84;;;6.49;78.65